createdAt,value
2023-03-07T00:01:31.184Z,67.64
2023-03-07T00:06:32.830Z,67.47
2023-03-07T00:11:34.472Z,67.60
2023-03-07T00:16:36.145Z,67.80
2023-03-07T00:21:37.875Z,67.28
2023-03-07T00:26:39.853Z,67.99
2023-03-07T00:31:41.476Z,67.68
2023-03-07T00:36:43.185Z,67.66
2023-03-07T00:41:44.844Z,68.19
2023-03-07T00:46:46.568Z,68.24
2023-03-07T00:51:48.452Z,68.87
2023-03-07T00:56:50.851Z,68.55
2023-03-07T01:01:52.613Z,68.80
2023-03-07T01:06:54.257Z,68.96
2023-03-07T01:11:55.950Z,68.67
2023-03-07T01:16:57.932Z,68.97
2023-03-07T01:21:59.800Z,69.36
2023-03-07T01:27:01.922Z,69.17
2023-03-07T01:32:03.817Z,69.74
2023-03-07T01:37:05.713Z,70.03
2023-03-07T01:42:07.734Z,70.44
2023-03-07T01:47:09.600Z,70.06
2023-03-07T01:52:31.482Z,70.09
2023-03-07T01:57:38.372Z,70.70
2023-03-07T02:02:46.022Z,70.55
2023-03-07T02:07:54.019Z,70.60
2023-03-07T02:13:00.332Z,70.96
2023-03-07T02:18:04.374Z,70.76
2023-03-07T02:23:13.564Z,71.19
2023-03-07T02:28:17.353Z,71.49
2023-03-07T02:33:19.174Z,71.40
2023-03-07T02:38:22.684Z,71.35
2023-03-07T02:43:24.973Z,71.51
2023-03-07T02:48:26.559Z,71.60
2023-03-07T02:53:28.463Z,71.91
2023-03-07T02:58:30.188Z,72.98
2023-03-07T03:03:31.935Z,73.08
2023-03-07T03:08:33.702Z,74.06
2023-03-07T03:13:37.169Z,73.54
2023-03-07T03:18:41.500Z,73.21
2023-03-07T03:23:43.331Z,72.76
2023-03-07T03:28:45.472Z,72.76
2023-03-07T03:33:49.337Z,72.90
2023-03-07T03:38:59.301Z,73.03
2023-03-07T03:44:01.422Z,73.00
2023-03-07T03:49:05.128Z,73.23
2023-03-07T03:54:07.964Z,73.41
2023-03-07T03:59:11.111Z,74.11
2023-03-07T04:04:12.835Z,74.05
2023-03-07T04:09:15.207Z,74.06
2023-03-07T04:14:21.039Z,74.30
2023-03-07T04:19:23.033Z,74.82
2023-03-07T04:24:25.845Z,74.79
2023-03-07T04:29:27.610Z,74.85
2023-03-07T04:34:36.475Z,75.06
2023-03-07T04:39:38.612Z,74.96
2023-03-07T04:44:42.652Z,75.12
2023-03-07T04:49:44.429Z,75.25
2023-03-07T04:54:46.327Z,75.36
2023-03-07T04:59:47.992Z,74.83
2023-03-07T05:04:50.324Z,75.12
2023-03-07T05:09:52.109Z,75.53
2023-03-07T05:14:53.869Z,75.77
2023-03-07T05:19:56.133Z,75.46
2023-03-07T05:24:58.644Z,76.47
2023-03-07T05:30:01.092Z,76.12
2023-03-07T05:35:04.206Z,76.29
2023-03-07T05:40:15.781Z,76.05
2023-03-07T05:45:21.238Z,76.06
2023-03-07T05:50:23.976Z,75.83
2023-03-07T05:55:25.789Z,76.17
2023-03-07T06:00:28.331Z,76.18
2023-03-07T06:05:34.456Z,75.97
2023-03-07T06:10:40.028Z,75.90
2023-03-07T06:15:44.237Z,75.80
2023-03-07T06:20:58.774Z,75.72
2023-03-07T06:26:03.181Z,75.46
2023-03-07T06:31:12.831Z,75.66
2023-03-07T06:36:17.268Z,75.88
2023-03-07T06:41:22.371Z,76.74
2023-03-07T06:46:25.669Z,76.23
2023-03-07T06:51:28.620Z,76.11
2023-03-07T06:56:34.328Z,74.91
2023-03-07T07:01:37.421Z,74.20
2023-03-07T07:06:39.155Z,74.47
2023-03-07T07:11:40.928Z,74.72
2023-03-07T07:16:46.253Z,74.53
2023-03-07T07:21:48.060Z,74.17
2023-03-07T07:26:49.718Z,73.58
2023-03-07T07:31:51.531Z,72.68
2023-03-07T07:36:54.681Z,72.48
2023-03-07T07:41:56.492Z,72.41
2023-03-07T07:47:01.584Z,71.32
2023-03-07T07:52:03.464Z,71.52
2023-03-07T07:57:05.369Z,71.83
2023-03-07T08:02:07.405Z,70.57
2023-03-07T08:07:09.124Z,71.01
2023-03-07T08:12:12.547Z,70.85
2023-03-07T08:17:14.464Z,70.47
2023-03-07T08:22:16.971Z,70.09
2023-03-07T08:27:18.611Z,69.46
2023-03-07T08:32:20.257Z,69.38
2023-03-07T08:37:21.924Z,68.79
2023-03-07T08:42:23.578Z,67.97
2023-03-07T08:47:25.390Z,68.47
2023-03-07T08:52:27.075Z,68.02
2023-03-07T08:57:28.719Z,67.77
2023-03-07T09:02:30.347Z,67.17
2023-03-07T09:07:32.157Z,67.34
2023-03-07T09:12:34.563Z,67.17
2023-03-07T09:17:36.500Z,67.49
2023-03-07T09:22:38.445Z,67.33
2023-03-07T09:27:40.118Z,67.28
2023-03-07T09:32:42.690Z,66.87
2023-03-07T09:37:44.326Z,66.68
2023-03-07T09:42:55.899Z,67.11
2023-03-07T09:48:35.320Z,66.09
2023-03-07T09:53:39.076Z,66.79
2023-03-07T09:58:45.214Z,66.19
2023-03-07T10:03:54.646Z,65.34
2023-03-07T10:08:59.816Z,64.76
2023-03-07T10:14:09.085Z,62.99
2023-03-07T10:19:35.955Z,62.18
2023-03-07T10:25:11.711Z,60.88
2023-03-07T10:30:18.015Z,59.48
2023-03-07T10:35:22.197Z,61.57
2023-03-07T10:40:28.724Z,60.01
2023-03-07T10:45:32.868Z,60.31
2023-03-07T10:50:55.454Z,58.14
2023-03-07T10:56:11.542Z,56.56
2023-03-07T11:01:17.690Z,57.61
2023-03-07T11:06:50.990Z,55.28
2023-03-07T11:12:05.780Z,55.58
2023-03-07T11:17:19.976Z,55.23
2023-03-07T11:22:23.937Z,57.76
2023-03-07T11:27:33.698Z,57.88
2023-03-07T11:32:40.131Z,57.25
2023-03-07T11:37:52.597Z,56.77
2023-03-07T11:43:21.997Z,58.24
2023-03-07T11:48:52.337Z,58.36
2023-03-07T11:54:00.106Z,58.98
2023-03-07T11:59:42.127Z,59.63
2023-03-07T12:05:04.149Z,61.02
2023-03-07T12:10:29.217Z,60.38
2023-03-07T12:16:08.003Z,60.25
2023-03-07T12:21:46.866Z,59.60
2023-03-07T12:27:07.174Z,59.49
2023-03-07T12:32:14.464Z,59.81
2023-03-07T12:37:25.447Z,59.79
2023-03-07T12:42:38.468Z,60.07
2023-03-07T12:47:59.794Z,60.57
2023-03-07T12:53:07.507Z,60.63
2023-03-07T12:58:24.369Z,60.37
2023-03-07T13:03:55.585Z,61.04
2023-03-07T13:09:04.112Z,61.46
2023-03-07T13:14:06.009Z,62.02
2023-03-07T13:19:35.684Z,62.84
2023-03-07T13:24:37.305Z,61.43
2023-03-07T13:30:03.798Z,62.13
2023-03-07T13:35:09.761Z,62.23
2023-03-07T13:40:39.632Z,61.58
2023-03-07T13:45:41.245Z,61.78
2023-03-07T13:50:42.976Z,61.79
2023-03-07T13:55:47.571Z,62.29
2023-03-07T14:01:02.896Z,62.86
2023-03-07T14:06:17.206Z,63.38
2023-03-07T14:11:30.655Z,64.57
2023-03-07T14:16:35.226Z,64.57
2023-03-07T14:22:00.914Z,64.90
2023-03-07T14:27:12.792Z,66.01
2023-03-07T14:32:24.471Z,67.27
2023-03-07T14:37:30.884Z,67.49
2023-03-07T14:42:55.027Z,68.94
2023-03-07T14:48:08.931Z,70.37
2023-03-07T14:53:19.634Z,72.87
2023-03-07T14:58:24.010Z,72.35
2023-03-07T15:03:26.150Z,72.19
2023-03-07T15:08:38.487Z,71.87
2023-03-07T15:13:58.548Z,72.91
2023-03-07T15:19:24.370Z,74.27
2023-03-07T15:24:31.234Z,74.08
2023-03-07T15:29:33.598Z,74.60
2023-03-07T15:34:37.648Z,75.39
2023-03-07T15:39:39.308Z,76.20
2023-03-07T15:44:40.916Z,77.58
2023-03-07T15:49:58.803Z,77.49
2023-03-07T15:55:05.417Z,76.86
2023-03-07T16:00:20.441Z,76.94
2023-03-07T16:05:23.012Z,77.39
2023-03-07T16:10:28.401Z,78.12
2023-03-07T16:15:30.239Z,78.24
2023-03-07T16:20:31.804Z,79.03
2023-03-07T16:25:34.045Z,80.02
2023-03-07T16:30:35.713Z,80.79
2023-03-07T16:35:37.368Z,80.07
2023-03-07T16:40:44.590Z,80.28
2023-03-07T16:45:46.296Z,80.54
2023-03-07T16:50:47.952Z,80.42
2023-03-07T16:55:50.922Z,82.65
2023-03-07T17:00:53.733Z,81.99
2023-03-07T17:05:55.460Z,82.40
2023-03-07T17:10:57.513Z,82.50
2023-03-07T17:15:59.159Z,82.15
2023-03-07T17:21:00.859Z,82.87
2023-03-07T17:26:02.547Z,82.38
2023-03-07T17:31:04.316Z,83.07
2023-03-07T17:36:06.424Z,82.44
2023-03-07T17:41:08.142Z,82.46
2023-03-07T17:46:11.537Z,83.69
2023-03-07T17:51:13.494Z,83.22
2023-03-07T17:56:15.153Z,83.94
2023-03-07T18:01:16.841Z,84.56
2023-03-07T18:06:18.549Z,84.25
2023-03-07T18:11:20.389Z,84.22
2023-03-07T18:16:22.212Z,83.83
2023-03-07T18:21:23.961Z,84.24
2023-03-07T18:26:25.797Z,83.81
2023-03-07T18:31:30.324Z,85.13
2023-03-07T18:36:31.977Z,84.21
2023-03-07T18:41:33.596Z,84.06
2023-03-07T18:46:37.181Z,84.50
2023-03-07T18:51:39.507Z,84.03
2023-03-07T18:56:42.598Z,84.38
2023-03-07T19:01:45.000Z,84.07
2023-03-07T19:06:47.642Z,84.56
2023-03-07T19:11:49.278Z,84.78
2023-03-07T19:16:50.997Z,84.52
2023-03-07T19:21:52.914Z,84.34
2023-03-07T19:26:54.493Z,84.52
2023-03-07T19:31:56.094Z,84.54
2023-03-07T19:36:57.801Z,84.85
2023-03-07T19:41:59.663Z,84.67
2023-03-07T19:47:01.320Z,84.86
2023-03-07T19:52:03.022Z,84.97
2023-03-07T19:57:04.689Z,84.63
2023-03-07T20:02:06.957Z,84.27
2023-03-07T20:07:08.678Z,84.18
2023-03-07T20:12:10.461Z,84.08
2023-03-07T20:17:12.407Z,83.77
2023-03-07T20:22:14.163Z,84.79
2023-03-07T20:27:20.393Z,85.21
2023-03-07T20:32:23.185Z,84.73
2023-03-07T20:37:24.857Z,84.29
2023-03-07T20:42:27.134Z,84.73
2023-03-07T20:47:28.821Z,84.06
2023-03-07T20:52:30.491Z,84.14
2023-03-07T20:57:32.084Z,83.83
2023-03-07T21:02:33.669Z,84.31
2023-03-07T21:07:35.251Z,84.33
2023-03-07T21:12:36.915Z,84.57
2023-03-07T21:17:38.625Z,85.13
2023-03-07T21:22:40.662Z,85.22
2023-03-07T21:27:42.257Z,85.28
2023-03-07T21:32:43.845Z,85.18
2023-03-07T21:37:45.581Z,84.93
2023-03-07T21:42:47.633Z,84.66
2023-03-07T21:47:53.318Z,84.83
2023-03-07T21:52:55.152Z,84.62
2023-03-07T21:57:56.768Z,84.48
2023-03-07T22:02:59.103Z,84.62
2023-03-07T22:08:00.730Z,84.51
2023-03-07T22:13:02.371Z,84.61
2023-03-07T22:18:04.172Z,84.76
2023-03-07T22:23:05.817Z,84.51
2023-03-07T22:28:07.543Z,84.76
2023-03-07T22:33:09.165Z,84.40
2023-03-07T22:38:10.833Z,84.36
2023-03-07T22:43:12.406Z,84.36
2023-03-07T22:48:15.983Z,84.83
2023-03-07T22:53:17.695Z,85.08
2023-03-07T22:58:19.307Z,85.73
2023-03-07T23:03:21.083Z,87.07
2023-03-07T23:08:22.721Z,86.42
2023-03-07T23:13:24.342Z,86.68
2023-03-07T23:18:25.974Z,87.00
2023-03-07T23:23:27.576Z,88.13
2023-03-07T23:28:29.511Z,88.13
2023-03-07T23:33:31.187Z,89.50
2023-03-07T23:38:32.816Z,88.57
2023-03-07T23:43:34.762Z,88.22
2023-03-07T23:48:36.428Z,87.86
2023-03-07T23:53:38.070Z,88.78
2023-03-07T23:58:40.064Z,90.17
